Last 48 Hours

Scotts Valley

Hourly Data | America/Los_Angeles
as of 10/26/20 7:55 AM PDT
Date & Time Temp (°F) RH (%) Dew Pt (°F) Wet Bulb (°F) Wind Dir (°) Wind Spd (mph) Wind Gust (mph) Leaf Wet (mins) Latest Rain (In) Daily Rain (In) Daily Max Temp (°F) Daily Min Temp (°F) Daily Leaf Wet Hrs (hrs)
10/26/20 - 0700 35.1 27 3.9 26.7 S | 174 1.5 5.6 0.0 0.00 0.00 57.1 31.6 0.0
10/26/20 - 0600 42.7 15 -3.2 30.6 SE | 141 1.6 6.2 0.0 0.00 0.00 57.1 37.2 0.0
10/26/20 - 0500 54.6 4 -22.1 35.8 N | 2 3.7 14.2 0.0 0.00 0.00 57.1 46.1 0.0
10/26/20 - 0400 55.0 3 -22.3 36.0 N | 5 4.3 12.0 0.0 0.00 0.00 57.1 46.1 0.0
10/26/20 - 0300 55.6 3 -21.5 36.4 NNE | 20 8.3 19.7 0.0 0.00 0.00 57.1 46.1 0.0
10/26/20 - 0200 52.3 6 -16.2 35.0 N | 9 7.1 18.7 0.0 0.00 0.00 57.0 46.1 0.0
10/26/20 - 0100 42.3 20 0.7 30.8 NNW | 342 2.7 13.3 0.0 0.00 0.00 72.0 31.2 8.2
10/26/20 - 0000 37.8 28 7.5 29.0 NW | 317 1.2 4.8 0.0 0.00 0.00 72.0 31.2 8.2
10/25/20 - 2300 43.8 20 5.2 32.2 NNW | 327 0.9 3.5 0.0 0.00 0.00 72.0 31.2 8.2
10/25/20 - 2200 55.1 9 -2.5 37.4 NNE | 21 3.4 10.1 0.0 0.00 0.00 72.0 31.2 8.2
10/25/20 - 2100 52.4 12 0.2 36.3 N | 5 2.4 9.7 0.0 0.00 0.00 72.0 31.2 8.2
10/25/20 - 2000 57.7 8 -4.0 38.5 NNE | 15 3.2 13.6 0.0 0.00 0.00 72.0 31.2 8.2
10/25/20 - 1900 61.1 6 -6.3 39.9 NNE | 20 3.8 8.0 0.0 0.00 0.00 72.0 31.2 8.2
10/25/20 - 1800 67.2 5 -7.0 42.6 NE | 52 4.5 14.2 0.0 0.00 0.00 72.0 31.2 8.2
10/25/20 - 1700 69.8 9 8.6 45.3 ESE | 107 3.9 10.5 0.0 0.00 0.00 72.0 31.2 8.2
10/25/20 - 1600 69.8 14 18.8 47.0 SE | 137 3.9 10.0 0.0 0.00 0.00 70.7 31.2 8.2
10/25/20 - 1500 68.6 24 30.8 49.6 SE | 136 4.8 12.3 0.0 0.00 0.00 69.7 31.2 8.2
10/25/20 - 1400 67.7 28 33.5 50.1 SE | 141 4.4 11.2 0.0 0.00 0.00 68.7 31.2 8.2
10/25/20 - 1300 67.1 32 36.2 50.9 SE | 138 3.4 9.3 0.0 0.00 0.00 68.7 31.2 8.2
10/25/20 - 1200 62.4 47 41.6 51.5 SSE | 153 2.2 7.0 0.0 0.00 0.00 64.9 31.2 8.2
10/25/20 - 1100 59.2 68 48.5 53.8 ESE | 115 1.7 5.8 0.0 0.00 0.00 60.9 31.2 8.2
10/25/20 - 1000 49.5 90 46.4 48.4 SW | 217 0.3 3.3 9.6 0.00 0.00 56.5 31.2 8.2
10/25/20 - 0900 35.1 99 34.8 35.0 SW | 229 0.0 0.8 60.0 0.00 0.00 42.6 31.2 8.0
10/25/20 - 0800 31.6 98 31.0 31.3 SW | 233 0.2 1.6 60.0 0.00 0.00 38.8 31.2 7.0
10/25/20 - 0700 32.2 98 31.7 31.9 SW | 231 0.0 0.8 60.0 0.00 0.00 38.8 31.6 6.0
10/25/20 - 0600 33.2 98 32.6 32.9 SW | 231 0.1 1.4 60.0 0.00 0.00 38.8 32.6 5.0
10/25/20 - 0500 34.3 97 33.6 34.0 SW | 214 0.1 1.9 60.0 0.00 0.00 38.8 33.8 4.0
10/25/20 - 0400 35.3 97 34.5 35.0 SSE | 158 0.1 1.8 60.0 0.00 0.00 38.8 34.7 3.0
10/25/20 - 0300 36.7 97 35.8 36.4 SE | 131 0.0 0.8 60.0 0.00 0.00 38.8 35.9 2.0
10/25/20 - 0200 37.8 96 36.8 37.4 ENE | 59 0.1 1.5 60.0 0.00 0.00 38.8 37.0 1.0
10/25/20 - 0100 39.3 96 38.2 39.0 E | 87 0.3 2.3 60.0 0.00 0.00 77.7 32.7 2.4
10/25/20 - 0000 41.1 94 39.6 40.7 SE | 141 0.2 1.8 5.5 0.00 0.00 77.7 32.7 1.4
10/24/20 - 2300 42.9 92 40.8 42.2 E | 98 0.2 1.2 0.0 0.00 0.00 77.7 32.7 1.3
10/24/20 - 2200 45.6 89 42.5 44.5 S | 190 0.2 1.9 0.0 0.00 0.00 77.7 32.7 1.3
10/24/20 - 2100 49.2 84 44.4 47.3 SE | 129 0.4 3.1 0.0 0.00 0.00 77.7 32.7 1.3
10/24/20 - 2000 54.1 75 46.2 50.4 S | 176 1.0 3.7 0.0 0.00 0.00 77.7 32.7 1.3
10/24/20 - 1900 61.4 57 46.0 53.2 SSW | 193 1.3 5.7 0.0 0.00 0.00 77.7 32.7 1.3
10/24/20 - 1800 69.1 40 43.4 54.6 SW | 226 3.3 10.3 0.0 0.00 0.00 77.7 32.7 1.3
10/24/20 - 1700 73.3 28 38.2 53.6 WSW | 252 4.3 11.3 0.0 0.00 0.00 77.7 32.7 1.3
10/24/20 - 1600 75.6 23 35.1 53.2 WSW | 256 4.2 11.9 0.0 0.00 0.00 77.7 32.7 1.3
10/24/20 - 1500 75.5 22 33.8 52.7 S | 181 3.6 11.7 0.0 0.00 0.00 76.4 32.7 1.3
10/24/20 - 1400 73.7 26 36.6 53.2 SSE | 163 3.3 9.9 0.0 0.00 0.00 75.6 32.7 1.3
10/24/20 - 1300 72.2 32 40.9 54.4 ESE | 106 2.8 7.7 0.0 0.00 0.00 73.8 32.7 1.3
10/24/20 - 1200 69.0 36 40.7 53.3 NE | 42 1.6 5.8 0.0 0.00 0.00 70.9 32.7 1.3
10/24/20 - 1100 64.6 42 40.8 51.8 E | 82 1.3 4.2 0.0 0.00 0.00 66.3 32.7 1.3
10/24/20 - 1000 55.9 60 42.0 48.9 ESE | 116 0.4 2.8 0.0 0.00 0.00 62.0 32.7 1.3
10/24/20 - 0900 38.7 96 37.5 38.3 SSW | 195 0.2 1.2 16.8 0.00 0.00 47.1 32.7 1.3
10/24/20 - 0800 33.0 96 32.1 32.6 SSW | 197 0.2 1.4 58.7 0.00 0.00 38.4 32.7 1.0
10/24/20 - 0700 33.6 96 32.5 33.1 SSW | 208 0.4 1.8 1.6 0.00 0.00 38.4 32.9 0.0
Max 75.6 99 48.5 54.6 - 8.3 19.7 60.0 0.00 0.00 77.7 46.1 8.2
Avg 52.5 50 24.5 41.9 - 2.1 6.8 12.9 0.00 - - - -
Min 31.6 3 -22.3 26.7 - 0.0 0.8 0.0 0.00 0.00 38.4 31.2 0.0
Total - - - - - - - - 0.00 - - - -